Martin Braun

Recruteur en chef - Mainz 05
4 Avr 2027
Dimanche
Processus

Personnalité

Adaptabilité (5) Ambition (5) Controverse (4) Loyauté (17) Pression (1) Professionnalisme (15) Sportivité (5) Tempérament (11)

Profil

Style d'entraînement Démocratique
Diplôme Continental A
Détermination 11
Gestion des joueurs 11
Motivation 9
Discipline 10
Satisfaction professionnelle
73%
Fatigue
0%
Rôle Recruteur en chef
Salaire 74.7K p/s
Contrat 14.03.2029

Performance

Comportement Bon
Efficacité de l'entraînement
30%
Développement des joueurs
40%
Prévention des blessures
35%
Mise en place tactique
40%

Événements récents

A évalué un joueur maintenant
A participé à une réunion de recrutement maintenant
A recommandé une cible de transfert maintenant
A recommandé une cible de transfert maintenant
A recommandé une cible de transfert maintenant
A évalué un joueur maintenant
A évalué un joueur maintenant
A évalué un joueur 7j

Suivi en cours

197
Joueur Club Statut Capacité Confiance Observé Dernière observation Dernier vote
George Wickens Lincoln City Actif 116 / 114 40% 3 02.04.2027 -
Jamie Cumming Oxford United Actif 134 / 133 40% 1 02.04.2027 -
Ruslan Neshcheret Dynamo Kyiv Actif 117 / 126 40% 3 01.04.2027 -
Jordan Amissah Burton Albion Actif 110 / 101 40% 1 01.04.2027 -
Pascal Loretz Luzern Actif 140 / 129 40% 5 31.03.2027 -
Andreas Jungdal Westerlo Actif 121 / 120 40% 1 31.03.2027 -
Alfonso Pastor Maritimo Actif 114 / 115 40% 3 30.03.2027 -
Sławomir Abramowicz Jagiellonia Actif 112 / 126 40% 1 30.03.2027 -
Lorenzo Palmisani Frosinone Actif 139 / 141 40% 1 29.03.2027 -
Igor Nikić Mirandés Actif 116 / 123 40% 1 29.03.2027 -
Bernardo Fontes Braga Actif 119 / 128 40% 4 28.03.2027 -
Gonzalo Crettaz NEC Actif 135 / 139 40% 2 28.03.2027 -
Elijah Dijkstra Feyenoord Actif 113 / 134 40% 2 27.03.2027 -
Niklas Steffen Thun Actif 114 / 116 40% 4 27.03.2027 -
Stav Lemkin Twente Actif 127 / 122 40% 1 27.03.2027 -
Oleksandr Saputin Zorya Actif 99 / 133 40% 1 27.03.2027 -
Radek Vítek Middlesbrough Actif 129 / 141 40% 4 26.03.2027 -
Mio Backhaus SC Freiburg Actif 125 / 143 40% 1 26.03.2027 -
Cristian Shpendi Cesena Actif 141 / 142 40% 2 25.03.2027 -
Edoardo Corvi Parma Actif 138 / 129 40% 3 25.03.2027 -
Andrea Colpani Monza Actif 139 / 138 40% 1 25.03.2027 -
Guilherme Fernandes Córdoba Actif 126 / 137 40% 2 22.03.2027 -
Ben Voll St. Pauli Actif 125 / 116 40% 2 22.03.2027 -
João Valido Chaves Actif 121 / 120 40% 2 21.03.2027 -
Ilias Sebaoui Sint-Truiden Actif 118 / 135 40% 3 20.03.2027 -
Nacer Tielemans Mouscron Actif 135 / 135 40% 1 20.03.2027 -
Guillaume Restes Toulouse FC Actif 126 / 142 40% 1 20.03.2027 -
Gabriel Brazão Santos Actif 124 / 124 40% 1 20.03.2027 -
Fabian de Keijzer Heracles Actif 126 / 108 40% 2 19.03.2027 -
Grégoire Coudert Burnley Actif 139 / 129 40% 1 17.03.2027 -
Anthony Patterson Wrexham Actif 133 / 138 40% 1 17.03.2027 -
Beau Reus Waasland-Beveren Actif 138 / 136 40% 1 16.03.2027 -
Olívio Tomé Benfica Actif 112 / 104 40% 1 16.03.2027 -
Veljko Radosavljević Cukaricki Actif 108 / 98 40% 1 16.03.2027 -
Lucas Cañizares Tondela Actif 98 / 120 40% 1 15.03.2027 -
Berke Özer LOSC Lille Actif 133 / 138 40% 2 14.03.2027 -
Karl Hein Werder Bremen Actif 135 / 146 40% 3 13.03.2027 -
Michael Cooper Sheffield United Actif 133 / 126 40% 3 12.03.2027 -
Axel Alderweireld KV Oostende Actif 136 / 150 40% 1 11.03.2027 -
Luciano Gondou CSKA Moscow Actif 126 / 128 40% 5 10.03.2027 -
Bilal Bayazıt Kayserispor Actif 125 / 116 40% 1 10.03.2027 -
Jackson Muleka Konyaspor Actif 144 / 139 40% 1 10.03.2027 -
Brian Rodríguez Club America Actif 150 / 126 40% 1 08.03.2027 -
Sébastien Durand Tours Actif 128 / 140 40% 1 08.03.2027 -
Chiquinho Alverca Actif 136 / 124 40% 1 07.03.2027 -
Luca Koleosho Paris FC Actif 134 / 141 40% 1 07.03.2027 -
Egoitz Arana Real Sociedad Actif 97 / 115 40% 1 06.03.2027 -
Alan KAA Gent Actif 138 / 136 40% 3 05.03.2027 -
Louis Oppie St. Pauli Actif 130 / 119 40% 1 05.03.2027 -
Caspar Jander Southampton Actif 133 / 124 40% 1 05.03.2027 -
Luca Orellano Monterrey Actif 151 / 139 40% 1 05.03.2027 -
Lazar Carević Famalicao Actif 123 / 140 40% 2 02.03.2027 -
Festy Ebosele Basaksehir Actif 124 / 137 40% 2 01.03.2027 -
Mahamadou Doumbia Al-Ittihad Actif 126 / 130 40% 1 01.03.2027 -
Marcel Ruiz Toluca Actif 128 / 154 40% 2 25.02.2027 -
Thierry Rendall Correia Venezia Actif 135 / 145 40% 2 24.02.2027 -
Michy Fellaini KV Oostende Actif 145 / 139 40% 7 23.02.2027 -
Sem Westerveld Zaragoza Actif 124 / 119 40% 1 20.02.2027 -
Figueiredo Alverca Actif 132 / 118 40% 1 18.02.2027 -
Daniil Khudyakov Sturm Graz Actif 132 / 127 40% 1 16.02.2027 -
Carl Rushworth Coventry City Actif 127 / 128 40% 1 14.02.2027 -
Jakub Surovčík Sparta Prague Actif 128 / 112 40% 1 14.02.2027 -
Nazar Voloshyn Dynamo Kyiv Actif 122 / 133 40% 1 14.02.2027 -
Iñaki Peña Panathinaikos Actif 125 / 158 40% 1 10.02.2027 -
Jakub Stolarczyk Leicester City Actif 129 / 124 40% 2 08.02.2027 -
Aral Şimşir Trabzonspor Actif 143 / 117 40% 4 07.02.2027 -
Rome-Jayden Owusu-Oduro AZ Actif 144 / 127 40% 2 07.02.2027 -
Luciano Juba Bahia Actif 125 / 129 40% 2 06.02.2027 -
Elia Caprile Cagliari Actif 146 / 135 40% 1 04.02.2027 -
Heorhii Yermakov Metalist Actif 127 / 116 40% 1 02.02.2027 -
Leo Kokubo Sint-Truiden Actif 109 / 119 40% 1 02.02.2027 -
Gonzalo Plata Dinamo Moscow Actif 123 / 144 40% 3 26.01.2027 -
Duk Atlas Perdu 113 / 102 40% 2 26.01.2027 -
Chema Andrés VfB Stuttgart Actif 138 / 152 51% 1 18.01.2027 -
Maurits Kjærgaard Red Bull Salzburg Perdu 142 / 134 40% 10 01.01.2027 -
Roberto Alvarado Guadalajara Actif 139 / 139 66% 1 01.01.2027 Approuver
Marvin Keller Young Boys Perdu 136 / 137 67% 1 01.01.2027 Approuver
Paulinho Palmeiras Actif 140 / 140 66% 1 01.01.2027 Approuver
Federico Pereira Toluca Perdu 135 / 135 68% 1 01.01.2027 -
Vitor Roque Palmeiras Actif 140 / 145 68% 1 01.01.2027 Approuver
Richard Koné Queens Park Rangers Actif 119 / 129 40% 6 31.12.2026 -
Chupete Málaga Actif 130 / 123 40% 5 31.12.2026 -
Matheuzinho Corinthians Actif 137 / 128 40% 1 30.12.2026 -
Peter Itodo Metalist Perdu 94 / 123 40% 2 29.12.2026 -
Orri Óskarsson Real Sociedad Actif 129 / 126 40% 1 29.12.2026 -
Dženan Pejčinović VfB Stuttgart Actif 115 / 129 40% 2 27.12.2026 -
Ansu Fati Monaco Actif 140 / 130 40% 1 27.12.2026 -
Jones El-Abdellaoui Celta Perdu 138 / 131 40% 2 25.12.2026 -
Tyreece Campbell Charlton Athletic Actif 111 / 128 40% 4 25.12.2026 -
García Pascual Cádiz Actif 111 / 122 40% 1 25.12.2026 -
Juan Bisanz Huracán Actif 141 / 122 40% 1 23.12.2026 -
Derry Scherhant SC Freiburg Actif 121 / 120 40% 4 21.12.2026 -
Enis Destan Konyaspor Actif 137 / 111 40% 2 21.12.2026 -
Myron van Brederode KV Mechelen Actif 118 / 119 40% 3 19.12.2026 -
Manfred Ugalde Spartak Moscow Actif 130 / 119 40% 4 18.12.2026 -
Ilyas Chouaref Sion Actif 112 / 110 40% 3 15.12.2026 -
Ousmane Camara Castellón Actif 121 / 113 40% 5 15.12.2026 -
Bryan González Guadalajara Actif 120 / 137 40% 2 15.12.2026 -
Fiete Arp OB Actif 148 / 115 40% 1 15.12.2026 -
Abu Kamara Portsmouth Actif 117 / 115 40% 4 12.12.2026 -
Josh Coburn Millwall Actif 122 / 116 40% 1 11.12.2026 -
Karlo Špeljak Lucko Actif 114 / 117 40% 1 10.12.2026 -
Tadeo Allende Inter Miami CF Actif 136 / 126 40% 1 09.12.2026 -
Matija Frigan Parma Actif 122 / 133 40% 1 09.12.2026 -
Andri Guðjohnsen Blackburn Rovers Actif 111 / 120 40% 4 07.12.2026 -
Carlos Martín Atlético Madrid Actif 118 / 128 40% 2 05.12.2026 -
Fernand Gouré Westerlo Actif 103 / 114 40% 1 04.12.2026 -
Felipe Augusto Zenit Actif 127 / 144 40% 5 29.11.2026 -
Tobias Bech AGF Actif 120 / 113 40% 3 29.11.2026 -
Rocco Vata Watford Actif 112 / 119 40% 4 27.11.2026 -
Marlon Gomes Shakhtar Actif 131 / 137 40% 1 27.11.2026 -
Robert FC Copenhagen Actif 129 / 116 40% 2 26.11.2026 -
Kevin Kelsy Portland Timbers Actif 105 / 116 40% 1 22.11.2026 -
Exequiel Zeballos Boca Juniors Actif 122 / 132 40% 1 20.11.2026 -
Matteo di Giusto Luzern Actif 122 / 129 40% 1 20.11.2026 -
Matyáš Vojta Sparta Prague Actif 107 / 115 40% 3 18.11.2026 -
César Huerta Pumas UNAM Actif 135 / 128 40% 1 18.11.2026 -
Tomáš Rigo Stoke City Actif 123 / 121 40% 1 18.11.2026 -
Matheus Nascimento Le Havre AC Actif 122 / 129 40% 3 15.11.2026 -
Yoshan Valois Lanús Actif 108 / 125 40% 2 15.11.2026 -
Alvyn Sanches Young Boys Actif 125 / 138 40% 1 13.11.2026 -
Helinho Toluca Actif 113 / 138 40% 1 13.11.2026 -
Louis Munteanu DC United Actif 130 / 136 40% 2 11.11.2026 -
Erik Lira Cruz Azul Actif 127 / 131 40% 2 10.11.2026 -
Adam Randell Bristol City Actif 132 / 121 40% 1 10.11.2026 -
Chuki Werder Bremen Actif 121 / 129 40% 1 07.11.2026 -
Thomas Kastanaras FC Augsburg Actif 104 / 121 40% 1 07.11.2026 -
Eguinaldo Shakhtar Actif 139 / 129 40% 1 06.11.2026 -
Mohamed Bamba FC Lorient Actif 118 / 132 40% 1 05.11.2026 -
Henry Mosquera Bragantino Actif 116 / 132 40% 1 05.11.2026 -
Haissem Hassan Bloemfontein Celtic Actif 132 / 120 40% 1 05.11.2026 -
Fabian Rieder FC Augsburg Actif 125 / 146 40% 1 04.11.2026 -
Petter Nosa Dahl Rapid Wien Actif 120 / 118 40% 3 30.10.2026 -
Diego Aznar Huesca Actif 116 / 100 40% 1 29.10.2026 -
Vladyslav Vanat Girona Actif 121 / 143 40% 1 28.10.2026 -
Cesar Corona Veracruz Actif 134 / 145 40% 1 28.10.2026 -
Marezi Portsmouth Actif 127 / 129 40% 1 25.10.2026 -
Uchenna Ogundu FC Augsburg Actif 111 / 136 40% 1 23.10.2026 -
Rafiu Durosinmi Racing Genk Actif 128 / 132 40% 3 22.10.2026 -
Iván Martín Racing Club Actif 132 / 145 40% 4 18.10.2026 -
Lucio Castillo Colegiales Actif 105 / 112 40% 3 18.10.2026 -
Job Ochieng Real Sociedad Actif 108 / 101 40% 1 18.10.2026 -
Diego Lainez Tigres Actif 123 / 123 40% 1 18.10.2026 -
Kaio Jorge Cruzeiro Actif 144 / 141 40% 2 13.10.2026 -
Lucas Sanabria LA Galaxy Actif 118 / 115 40% 1 13.10.2026 -
Isma Ruiz Córdoba Actif 127 / 130 40% 1 12.10.2026 -
Aidan Morris Middlesbrough Actif 136 / 127 40% 1 12.10.2026 -
José Paradela Cruz Azul Actif 129 / 140 40% 1 11.10.2026 -
Adriano Bertaccini Anderlecht Actif 126 / 117 40% 1 11.10.2026 -
Marquinhos Spartak Moscow Actif 114 / 124 40% 1 08.10.2026 -
Jhon Jhon Zenit Actif 112 / 133 40% 1 07.10.2026 -
Ibrahim Aliyu Houston Dynamo Actif 110 / 127 40% 2 03.10.2026 -
Andrin Hunziker St. Gallen Actif 109 / 121 40% 4 01.10.2026 -
Alan Velasco Boca Juniors Actif 125 / 139 40% 3 30.09.2026 -
Agustín Venezia Iquique Actif 110 / 120 40% 2 29.09.2026 -
Gustavo Puerta Racing Santander Actif 137 / 147 40% 1 28.09.2026 -
Keke Topp Werder Bremen Actif 105 / 120 40% 1 22.09.2026 -
Vitinho Botafogo Actif 143 / 140 40% 1 22.09.2026 -
Sam Greenwood Bristol City Actif 115 / 128 40% 1 17.09.2026 -
Jorge Pascual Granada Actif 143 / 143 40% 1 16.09.2026 -
Tom Krauß Köln Actif 132 / 133 40% 1 15.09.2026 -
Yarek Gąsiorowski PSV Actif 131 / 140 40% 1 15.09.2026 -
Jens Petter Hauge Bodo/Glimt Actif 153 / 133 40% 1 12.09.2026 -
Chihiro Konagaya Albirex Niigata Actif 125 / 123 40% 1 11.09.2026 -
Talles Magno New York City Actif 117 / 124 40% 2 10.09.2026 -
Lorenzo Amatucci Deportivo La Coruña Actif 136 / 125 40% 1 10.09.2026 -
Jeong Sang-Bin St. Louis CITY SC Actif 126 / 106 40% 1 07.09.2026 -
Jay Stansfield Birmingham Actif 115 / 130 40% 1 05.09.2026 -
Ezequiel Almirón Estudiantes Actif 119 / 106 40% 1 03.09.2026 -
Lucas Richarte Temperley Actif 101 / 113 40% 1 01.09.2026 -
Livan Burcu Union Berlin Actif 109 / 119 40% 1 31.08.2026 -
Cyriaque Irié SC Freiburg Actif 127 / 121 40% 1 31.08.2026 -
Alejandro Piedrahita Deportivo Pereira Actif 134 / 123 40% 1 26.08.2026 -
Nicolò Tresoldi Club Brugge Actif 130 / 130 40% 1 25.08.2026 -
Cemran Dansin Orlando Pirates Actif 126 / 111 40% 1 25.08.2026 -
Ignacio Perruzzi San Lorenzo Actif 125 / 135 40% 1 25.08.2026 -
Oscar Højlund Eintracht Frankfurt Actif 120 / 130 40% 1 23.08.2026 -
Sergio Quintero La Equidad Actif 136 / 144 40% 1 23.08.2026 -
Ezechiel Banzuzi RB Leipzig Actif 114 / 134 40% 2 22.08.2026 -
Caleb Yirenkyi Coventry City Actif 135 / 130 40% 1 22.08.2026 -
Mihailo Ivanović Millwall Actif 111 / 139 40% 1 21.08.2026 -
Lucas Agazzi Defensor Sporting Actif 122 / 133 40% 1 21.08.2026 -
Ezekiel Kwame Alladoh Philadelphia Union Actif 128 / 109 40% 1 19.08.2026 -
Ibrahim Salah Basel Actif 122 / 112 40% 1 19.08.2026 -
Chris Rigg Sunderland Actif 126 / 137 40% 1 19.08.2026 -
Dejan Radonjić SV Ried Actif 107 / 112 40% 2 18.08.2026 -
Saël Kumbedi VfL Wolfsburg Actif 118 / 138 40% 1 18.08.2026 -
Santiago Fernández Talleres Actif 107 / 118 40% 1 17.08.2026 -
Stefan Schimmer Heidenheim Actif 110 / 113 51% 1 10.08.2026 -
Bruno Ogbus SC Freiburg Actif 106 / 135 40% 1 10.08.2026 -
Brighton Labeau Thun Actif 125 / 114 40% 1 06.08.2026 -
Lars Villiger Luzern Actif 112 / 123 40% 1 06.08.2026 -
Iñaki Williams Athletic Bilbao Actif 143 / 160 40% 1 04.08.2026 -
Carles Gil New England Revolution Actif 131 / 126 40% 1 04.08.2026 -
Sota Kitano Red Bull Salzburg Actif 131 / 125 40% 1 03.08.2026 -
Karim Konaté Red Bull Salzburg Actif 130 / 143 40% 1 03.08.2026 -
Mark Flekken Bayer Leverkusen Actif 145 / 144 40% 1 02.08.2026 -